sensor_id;sensor_type;location;lat;lon;timestamp;pressure;altitude;pressure_sealevel;temperature
41940;BMP180;23057;48.554;14.454;2023-04-24T00:01:00;92732.00;;;16.10
41940;BMP180;23057;48.554;14.454;2023-04-24T00:03:31;92744.00;;;16.00
41940;BMP180;23057;48.554;14.454;2023-04-24T00:06:03;92749.00;;;16.00
41940;BMP180;23057;48.554;14.454;2023-04-24T00:08:35;92746.00;;;15.90
41940;BMP180;23057;48.554;14.454;2023-04-24T00:11:06;92748.00;;;15.90
41940;BMP180;23057;48.554;14.454;2023-04-24T00:13:37;92752.00;;;15.80
41940;BMP180;23057;48.554;14.454;2023-04-24T00:16:08;92757.00;;;15.80
41940;BMP180;23057;48.554;14.454;2023-04-24T00:18:39;92755.00;;;15.70
41940;BMP180;23057;48.554;14.454;2023-04-24T00:21:10;92761.00;;;15.70
41940;BMP180;23057;48.554;14.454;2023-04-24T00:23:41;92758.00;;;15.70
41940;BMP180;23057;48.554;14.454;2023-04-24T00:26:12;92751.00;;;15.70
41940;BMP180;23057;48.554;14.454;2023-04-24T00:28:43;92751.00;;;15.70
41940;BMP180;23057;48.554;14.454;2023-04-24T00:31:13;92752.00;;;15.70
41940;BMP180;23057;48.554;14.454;2023-04-24T00:33:44;92760.00;;;15.60
41940;BMP180;23057;48.554;14.454;2023-04-24T00:36:15;92760.00;;;15.60
41940;BMP180;23057;48.554;14.454;2023-04-24T00:38:46;92753.00;;;15.60
41940;BMP180;23057;48.554;14.454;2023-04-24T00:41:17;92748.00;;;15.60
41940;BMP180;23057;48.554;14.454;2023-04-24T00:43:48;92757.00;;;15.60
41940;BMP180;23057;48.554;14.454;2023-04-24T00:46:19;92763.00;;;15.60
41940;BMP180;23057;48.554;14.454;2023-04-24T00:48:51;92752.00;;;15.60
41940;BMP180;23057;48.554;14.454;2023-04-24T00:51:22;92758.00;;;15.70
41940;BMP180;23057;48.554;14.454;2023-04-24T00:53:54;92768.00;;;15.70
41940;BMP180;23057;48.554;14.454;2023-04-24T00:56:26;92777.00;;;15.60
41940;BMP180;23057;48.554;14.454;2023-04-24T00:58:58;92783.00;;;15.60
41940;BMP180;23057;48.554;14.454;2023-04-24T01:01:29;92783.00;;;15.50
41940;BMP180;23057;48.554;14.454;2023-04-24T01:04:01;92789.00;;;15.50
41940;BMP180;23057;48.554;14.454;2023-04-24T01:06:32;92794.00;;;15.40
41940;BMP180;23057;48.554;14.454;2023-04-24T01:09:04;92794.00;;;15.40
41940;BMP180;23057;48.554;14.454;2023-04-24T01:11:36;92796.00;;;15.40
41940;BMP180;23057;48.554;14.454;2023-04-24T01:14:07;92789.00;;;15.40
41940;BMP180;23057;48.554;14.454;2023-04-24T01:16:38;92791.00;;;15.40
41940;BMP180;23057;48.554;14.454;2023-04-24T01:19:10;92789.00;;;15.50
41940;BMP180;23057;48.554;14.454;2023-04-24T01:21:43;92783.00;;;15.50
41940;BMP180;23057;48.554;14.454;2023-04-24T01:24:14;92779.00;;;15.60
41940;BMP180;23057;48.554;14.454;2023-04-24T01:26:46;92784.00;;;15.70
41940;BMP180;23057;48.554;14.454;2023-04-24T01:29:17;92777.00;;;15.70
41940;BMP180;23057;48.554;14.454;2023-04-24T01:31:48;92772.00;;;15.80
41940;BMP180;23057;48.554;14.454;2023-04-24T01:34:19;92770.00;;;15.90
41940;BMP180;23057;48.554;14.454;2023-04-24T01:36:50;92777.00;;;15.90
41940;BMP180;23057;48.554;14.454;2023-04-24T01:39:21;92779.00;;;15.90
41940;BMP180;23057;48.554;14.454;2023-04-24T01:41:54;92777.00;;;16.00
41940;BMP180;23057;48.554;14.454;2023-04-24T01:44:26;92772.00;;;16.10
41940;BMP180;23057;48.554;14.454;2023-04-24T01:46:56;92766.00;;;16.10
41940;BMP180;23057;48.554;14.454;2023-04-24T01:49:27;92757.00;;;16.10
41940;BMP180;23057;48.554;14.454;2023-04-24T01:51:58;92748.00;;;16.20
41940;BMP180;23057;48.554;14.454;2023-04-24T01:54:29;92758.00;;;16.20
41940;BMP180;23057;48.554;14.454;2023-04-24T01:57:00;92762.00;;;16.20
41940;BMP180;23057;48.554;14.454;2023-04-24T01:59:33;92754.00;;;16.20
41940;BMP180;23057;48.554;14.454;2023-04-24T02:02:05;92747.00;;;16.20
41940;BMP180;23057;48.554;14.454;2023-04-24T02:04:35;92749.00;;;16.20
41940;BMP180;23057;48.554;14.454;2023-04-24T02:07:06;92737.00;;;16.20
41940;BMP180;23057;48.554;14.454;2023-04-24T02:09:37;92746.00;;;16.20
41940;BMP180;23057;48.554;14.454;2023-04-24T02:12:08;92743.00;;;16.20
41940;BMP180;23057;48.554;14.454;2023-04-24T02:14:38;92749.00;;;16.30
41940;BMP180;23057;48.554;14.454;2023-04-24T02:17:10;92739.00;;;16.30
41940;BMP180;23057;48.554;14.454;2023-04-24T02:19:42;92736.00;;;16.30
41940;BMP180;23057;48.554;14.454;2023-04-24T02:22:13;92739.00;;;16.30
41940;BMP180;23057;48.554;14.454;2023-04-24T02:24:44;92734.00;;;16.30
41940;BMP180;23057;48.554;14.454;2023-04-24T02:27:15;92735.00;;;16.30
41940;BMP180;23057;48.554;14.454;2023-04-24T02:29:45;92743.00;;;16.30
41940;BMP180;23057;48.554;14.454;2023-04-24T02:32:16;92739.00;;;16.30
41940;BMP180;23057;48.554;14.454;2023-04-24T02:34:47;92740.00;;;16.30
41940;BMP180;23057;48.554;14.454;2023-04-24T02:37:17;92736.00;;;16.30
41940;BMP180;23057;48.554;14.454;2023-04-24T02:39:48;92735.00;;;16.40
41940;BMP180;23057;48.554;14.454;2023-04-24T02:42:19;92738.00;;;16.40
41940;BMP180;23057;48.554;14.454;2023-04-24T02:44:50;92732.00;;;16.40
41940;BMP180;23057;48.554;14.454;2023-04-24T02:47:21;92729.00;;;16.50
41940;BMP180;23057;48.554;14.454;2023-04-24T02:49:52;92729.00;;;16.50
41940;BMP180;23057;48.554;14.454;2023-04-24T02:52:23;92716.00;;;16.50
41940;BMP180;23057;48.554;14.454;2023-04-24T02:54:53;92724.00;;;16.50
41940;BMP180;23057;48.554;14.454;2023-04-24T02:57:24;92723.00;;;16.50
41940;BMP180;23057;48.554;14.454;2023-04-24T02:59:55;92714.00;;;16.40
41940;BMP180;23057;48.554;14.454;2023-04-24T03:02:26;92717.00;;;16.40
41940;BMP180;23057;48.554;14.454;2023-04-24T03:04:56;92721.00;;;16.50
41940;BMP180;23057;48.554;14.454;2023-04-24T03:07:27;92724.00;;;16.50
41940;BMP180;23057;48.554;14.454;2023-04-24T03:09:58;92718.00;;;16.50
41940;BMP180;23057;48.554;14.454;2023-04-24T03:12:29;92717.00;;;16.50
41940;BMP180;23057;48.554;14.454;2023-04-24T03:15:00;92711.00;;;16.50
41940;BMP180;23057;48.554;14.454;2023-04-24T03:17:31;92713.00;;;16.60
41940;BMP180;23057;48.554;14.454;2023-04-24T03:20:02;92701.00;;;16.60
41940;BMP180;23057;48.554;14.454;2023-04-24T03:22:35;92712.00;;;16.60
41940;BMP180;23057;48.554;14.454;2023-04-24T03:25:06;92719.00;;;16.70
41940;BMP180;23057;48.554;14.454;2023-04-24T03:27:39;92714.00;;;16.70
41940;BMP180;23057;48.554;14.454;2023-04-24T03:30:10;92714.00;;;16.70
41940;BMP180;23057;48.554;14.454;2023-04-24T03:32:41;92724.00;;;16.80
41940;BMP180;23057;48.554;14.454;2023-04-24T03:35:11;92722.00;;;16.70
41940;BMP180;23057;48.554;14.454;2023-04-24T03:37:42;92722.00;;;16.70
41940;BMP180;23057;48.554;14.454;2023-04-24T03:40:13;92722.00;;;16.70
41940;BMP180;23057;48.554;14.454;2023-04-24T03:42:44;92724.00;;;16.70
41940;BMP180;23057;48.554;14.454;2023-04-24T03:45:14;92720.00;;;16.70
41940;BMP180;23057;48.554;14.454;2023-04-24T03:47:45;92733.00;;;16.80
41940;BMP180;23057;48.554;14.454;2023-04-24T03:50:16;92732.00;;;16.80
41940;BMP180;23057;48.554;14.454;2023-04-24T03:52:47;92732.00;;;16.80
41940;BMP180;23057;48.554;14.454;2023-04-24T03:55:18;92741.00;;;16.80
41940;BMP180;23057;48.554;14.454;2023-04-24T03:57:48;92742.00;;;16.80
41940;BMP180;23057;48.554;14.454;2023-04-24T04:00:19;92737.00;;;16.90
41940;BMP180;23057;48.554;14.454;2023-04-24T04:02:51;92733.00;;;16.90
41940;BMP180;23057;48.554;14.454;2023-04-24T04:05:22;92730.00;;;16.90
41940;BMP180;23057;48.554;14.454;2023-04-24T04:07:52;92733.00;;;16.90
41940;BMP180;23057;48.554;14.454;2023-04-24T04:10:23;92733.00;;;16.80
41940;BMP180;23057;48.554;14.454;2023-04-24T04:12:54;92742.00;;;16.80
41940;BMP180;23057;48.554;14.454;2023-04-24T04:15:25;92737.00;;;16.80
41940;BMP180;23057;48.554;14.454;2023-04-24T04:17:55;92740.00;;;16.80
41940;BMP180;23057;48.554;14.454;2023-04-24T04:20:26;92737.00;;;16.80
41940;BMP180;23057;48.554;14.454;2023-04-24T04:22:57;92743.00;;;16.70
41940;BMP180;23057;48.554;14.454;2023-04-24T04:25:27;92746.00;;;16.70
41940;BMP180;23057;48.554;14.454;2023-04-24T04:27:59;92742.00;;;16.70
41940;BMP180;23057;48.554;14.454;2023-04-24T04:30:30;92750.00;;;16.70
41940;BMP180;23057;48.554;14.454;2023-04-24T04:33:02;92746.00;;;16.70
41940;BMP180;23057;48.554;14.454;2023-04-24T04:35:33;92745.00;;;16.70
41940;BMP180;23057;48.554;14.454;2023-04-24T04:38:04;92748.00;;;16.70
41940;BMP180;23057;48.554;14.454;2023-04-24T04:40:38;92745.00;;;16.80
41940;BMP180;23057;48.554;14.454;2023-04-24T04:43:09;92748.00;;;16.90
41940;BMP180;23057;48.554;14.454;2023-04-24T04:45:41;92742.00;;;16.90
41940;BMP180;23057;48.554;14.454;2023-04-24T04:48:13;92750.00;;;16.90
41940;BMP180;23057;48.554;14.454;2023-04-24T04:50:44;92752.00;;;16.90
41940;BMP180;23057;48.554;14.454;2023-04-24T04:53:15;92750.00;;;17.00
41940;BMP180;23057;48.554;14.454;2023-04-24T04:55:46;92758.00;;;17.00
41940;BMP180;23057;48.554;14.454;2023-04-24T04:58:17;92745.00;;;17.00
41940;BMP180;23057;48.554;14.454;2023-04-24T05:00:48;92754.00;;;17.10
41940;BMP180;23057;48.554;14.454;2023-04-24T05:03:19;92752.00;;;17.10
41940;BMP180;23057;48.554;14.454;2023-04-24T05:05:50;92751.00;;;17.10
41940;BMP180;23057;48.554;14.454;2023-04-24T05:08:21;92752.00;;;17.10
41940;BMP180;23057;48.554;14.454;2023-04-24T05:10:51;92760.00;;;17.10
41940;BMP180;23057;48.554;14.454;2023-04-24T05:13:22;92763.00;;;17.10
41940;BMP180;23057;48.554;14.454;2023-04-24T05:15:53;92772.00;;;17.20
41940;BMP180;23057;48.554;14.454;2023-04-24T05:18:24;92770.00;;;17.10
41940;BMP180;23057;48.554;14.454;2023-04-24T05:20:55;92767.00;;;17.10
41940;BMP180;23057;48.554;14.454;2023-04-24T05:23:26;92772.00;;;17.10
41940;BMP180;23057;48.554;14.454;2023-04-24T05:25:56;92769.00;;;17.10
41940;BMP180;23057;48.554;14.454;2023-04-24T05:28:27;92778.00;;;17.10
41940;BMP180;23057;48.554;14.454;2023-04-24T05:30:58;92766.00;;;17.10
41940;BMP180;23057;48.554;14.454;2023-04-24T05:33:29;92772.00;;;17.00
41940;BMP180;23057;48.554;14.454;2023-04-24T05:36:01;92773.00;;;17.10
41940;BMP180;23057;48.554;14.454;2023-04-24T05:38:31;92772.00;;;17.00
41940;BMP180;23057;48.554;14.454;2023-04-24T05:41:02;92779.00;;;17.00
41940;BMP180;23057;48.554;14.454;2023-04-24T05:43:33;92783.00;;;16.90
41940;BMP180;23057;48.554;14.454;2023-04-24T05:46:04;92774.00;;;16.90
41940;BMP180;23057;48.554;14.454;2023-04-24T05:48:35;92775.00;;;16.90
41940;BMP180;23057;48.554;14.454;2023-04-24T05:51:05;92787.00;;;16.90
41940;BMP180;23057;48.554;14.454;2023-04-24T05:53:36;92785.00;;;16.90
41940;BMP180;23057;48.554;14.454;2023-04-24T05:56:07;92786.00;;;16.80
41940;BMP180;23057;48.554;14.454;2023-04-24T05:58:38;92787.00;;;16.90
41940;BMP180;23057;48.554;14.454;2023-04-24T06:01:09;92788.00;;;16.90
41940;BMP180;23057;48.554;14.454;2023-04-24T06:03:41;92784.00;;;16.90
41940;BMP180;23057;48.554;14.454;2023-04-24T06:06:11;92793.00;;;16.90
41940;BMP180;23057;48.554;14.454;2023-04-24T06:08:42;92791.00;;;16.90
41940;BMP180;23057;48.554;14.454;2023-04-24T06:11:14;92778.00;;;17.00
41940;BMP180;23057;48.554;14.454;2023-04-24T06:13:45;92788.00;;;17.00
41940;BMP180;23057;48.554;14.454;2023-04-24T06:16:16;92787.00;;;17.00
41940;BMP180;23057;48.554;14.454;2023-04-24T06:18:46;92793.00;;;17.00
41940;BMP180;23057;48.554;14.454;2023-04-24T06:21:17;92797.00;;;17.00
41940;BMP180;23057;48.554;14.454;2023-04-24T06:23:48;92789.00;;;17.00
41940;BMP180;23057;48.554;14.454;2023-04-24T06:26:20;92793.00;;;17.00
41940;BMP180;23057;48.554;14.454;2023-04-24T06:28:51;92791.00;;;17.10
41940;BMP180;23057;48.554;14.454;2023-04-24T06:31:21;92791.00;;;17.10
41940;BMP180;23057;48.554;14.454;2023-04-24T06:33:52;92797.00;;;17.10
41940;BMP180;23057;48.554;14.454;2023-04-24T06:36:23;92793.00;;;17.20
41940;BMP180;23057;48.554;14.454;2023-04-24T06:38:54;92791.00;;;17.20
41940;BMP180;23057;48.554;14.454;2023-04-24T06:41:25;92788.00;;;17.20
41940;BMP180;23057;48.554;14.454;2023-04-24T06:43:56;92790.00;;;17.30
41940;BMP180;23057;48.554;14.454;2023-04-24T06:46:26;92792.00;;;17.30
41940;BMP180;23057;48.554;14.454;2023-04-24T06:48:58;92790.00;;;17.30
41940;BMP180;23057;48.554;14.454;2023-04-24T06:51:28;92783.00;;;17.40
41940;BMP180;23057;48.554;14.454;2023-04-24T06:53:59;92785.00;;;17.40
41940;BMP180;23057;48.554;14.454;2023-04-24T06:56:30;92792.00;;;17.40
41940;BMP180;23057;48.554;14.454;2023-04-24T06:59:01;92794.00;;;17.40
41940;BMP180;23057;48.554;14.454;2023-04-24T07:01:32;92791.00;;;17.50
41940;BMP180;23057;48.554;14.454;2023-04-24T07:04:02;92795.00;;;17.50
41940;BMP180;23057;48.554;14.454;2023-04-24T07:06:33;92800.00;;;17.50
41940;BMP180;23057;48.554;14.454;2023-04-24T07:09:05;92799.00;;;17.50
41940;BMP180;23057;48.554;14.454;2023-04-24T07:11:36;92798.00;;;17.50
41940;BMP180;23057;48.554;14.454;2023-04-24T07:14:08;92796.00;;;17.50
41940;BMP180;23057;48.554;14.454;2023-04-24T07:16:40;92792.00;;;17.40
41940;BMP180;23057;48.554;14.454;2023-04-24T07:19:12;92799.00;;;17.30
41940;BMP180;23057;48.554;14.454;2023-04-24T07:21:44;92796.00;;;17.20
41940;BMP180;23057;48.554;14.454;2023-04-24T07:24:15;92805.00;;;17.20
41940;BMP180;23057;48.554;14.454;2023-04-24T07:26:46;92801.00;;;17.10
41940;BMP180;23057;48.554;14.454;2023-04-24T07:29:17;92817.00;;;17.00
41940;BMP180;23057;48.554;14.454;2023-04-24T07:31:48;92813.00;;;17.00
41940;BMP180;23057;48.554;14.454;2023-04-24T07:34:19;92814.00;;;16.90
41940;BMP180;23057;48.554;14.454;2023-04-24T07:36:50;92814.00;;;16.90
41940;BMP180;23057;48.554;14.454;2023-04-24T07:39:22;92813.00;;;16.80
41940;BMP180;23057;48.554;14.454;2023-04-24T07:41:53;92814.00;;;16.80
41940;BMP180;23057;48.554;14.454;2023-04-24T07:44:24;92812.00;;;16.70
41940;BMP180;23057;48.554;14.454;2023-04-24T07:46:55;92822.00;;;16.70
41940;BMP180;23057;48.554;14.454;2023-04-24T07:49:26;92815.00;;;16.70
41940;BMP180;23057;48.554;14.454;2023-04-24T07:51:58;92821.00;;;16.70
41940;BMP180;23057;48.554;14.454;2023-04-24T07:54:30;92829.00;;;16.70
41940;BMP180;23057;48.554;14.454;2023-04-24T07:57:01;92830.00;;;16.70
41940;BMP180;23057;48.554;14.454;2023-04-24T07:59:32;92830.00;;;16.70
41940;BMP180;23057;48.554;14.454;2023-04-24T08:02:03;92838.00;;;16.70
41940;BMP180;23057;48.554;14.454;2023-04-24T08:04:33;92836.00;;;16.80
41940;BMP180;23057;48.554;14.454;2023-04-24T08:07:06;92835.00;;;16.80
41940;BMP180;23057;48.554;14.454;2023-04-24T08:09:38;92837.00;;;16.80
41940;BMP180;23057;48.554;14.454;2023-04-24T08:12:09;92837.00;;;16.90
41940;BMP180;23057;48.554;14.454;2023-04-24T08:14:40;92844.00;;;17.00
41940;BMP180;23057;48.554;14.454;2023-04-24T08:17:10;92841.00;;;17.00
41940;BMP180;23057;48.554;14.454;2023-04-24T08:19:41;92851.00;;;17.00
41940;BMP180;23057;48.554;14.454;2023-04-24T08:22:18;92852.00;;;17.10
41940;BMP180;23057;48.554;14.454;2023-04-24T08:24:49;92855.00;;;17.10
41940;BMP180;23057;48.554;14.454;2023-04-24T08:27:20;92846.00;;;17.10
41940;BMP180;23057;48.554;14.454;2023-04-24T08:29:52;92847.00;;;17.20
41940;BMP180;23057;48.554;14.454;2023-04-24T08:32:23;92853.00;;;17.30
41940;BMP180;23057;48.554;14.454;2023-04-24T08:34:55;92851.00;;;17.30
41940;BMP180;23057;48.554;14.454;2023-04-24T08:37:27;92851.00;;;17.40
41940;BMP180;23057;48.554;14.454;2023-04-24T08:39:58;92860.00;;;17.40
41940;BMP180;23057;48.554;14.454;2023-04-24T08:42:29;92859.00;;;17.50
41940;BMP180;23057;48.554;14.454;2023-04-24T08:45:03;92853.00;;;17.60
41940;BMP180;23057;48.554;14.454;2023-04-24T08:47:37;92861.00;;;17.60
41940;BMP180;23057;48.554;14.454;2023-04-24T08:50:10;92859.00;;;17.60
41940;BMP180;23057;48.554;14.454;2023-04-24T08:52:42;92859.00;;;17.60
41940;BMP180;23057;48.554;14.454;2023-04-24T08:55:13;92863.00;;;17.60
41940;BMP180;23057;48.554;14.454;2023-04-24T08:57:45;92859.00;;;17.70
41940;BMP180;23057;48.554;14.454;2023-04-24T09:00:21;92867.00;;;17.80
41940;BMP180;23057;48.554;14.454;2023-04-24T09:02:53;92857.00;;;17.90
41940;BMP180;23057;48.554;14.454;2023-04-24T09:05:25;92861.00;;;17.90
41940;BMP180;23057;48.554;14.454;2023-04-24T09:07:56;92861.00;;;17.90
41940;BMP180;23057;48.554;14.454;2023-04-24T09:10:29;92866.00;;;17.90
41940;BMP180;23057;48.554;14.454;2023-04-24T09:13:00;92868.00;;;17.90
41940;BMP180;23057;48.554;14.454;2023-04-24T09:15:32;92860.00;;;18.00
41940;BMP180;23057;48.554;14.454;2023-04-24T09:18:04;92864.00;;;18.00
41940;BMP180;23057;48.554;14.454;2023-04-24T09:20:35;92861.00;;;17.90
41940;BMP180;23057;48.554;14.454;2023-04-24T09:23:31;92866.00;;;17.90
41940;BMP180;23057;48.554;14.454;2023-04-24T09:26:03;92871.00;;;17.90
41940;BMP180;23057;48.554;14.454;2023-04-24T09:28:39;92870.00;;;17.90
41940;BMP180;23057;48.554;14.454;2023-04-24T09:31:15;92871.00;;;18.00
41940;BMP180;23057;48.554;14.454;2023-04-24T09:36:36;92868.00;;;18.00
41940;BMP180;23057;48.554;14.454;2023-04-24T09:39:13;92864.00;;;18.00
41940;BMP180;23057;48.554;14.454;2023-04-24T09:41:53;92869.00;;;18.10
41940;BMP180;23057;48.554;14.454;2023-04-24T09:44:28;92871.00;;;18.10
41940;BMP180;23057;48.554;14.454;2023-04-24T09:47:00;92873.00;;;18.20
41940;BMP180;23057;48.554;14.454;2023-04-24T09:49:31;92870.00;;;18.20
41940;BMP180;23057;48.554;14.454;2023-04-24T09:52:10;92867.00;;;18.20
41940;BMP180;23057;48.554;14.454;2023-04-24T09:54:41;92861.00;;;18.20
41940;BMP180;23057;48.554;14.454;2023-04-24T09:57:14;92864.00;;;18.30
41940;BMP180;23057;48.554;14.454;2023-04-24T09:59:46;92857.00;;;18.40
41940;BMP180;23057;48.554;14.454;2023-04-24T10:02:18;92864.00;;;18.40
41940;BMP180;23057;48.554;14.454;2023-04-24T10:04:56;92866.00;;;18.50
41940;BMP180;23057;48.554;14.454;2023-04-24T10:07:32;92870.00;;;18.50
41940;BMP180;23057;48.554;14.454;2023-04-24T10:10:04;92862.00;;;18.50
41940;BMP180;23057;48.554;14.454;2023-04-24T10:12:35;92865.00;;;18.40
41940;BMP180;23057;48.554;14.454;2023-04-24T10:15:07;92874.00;;;18.40
41940;BMP180;23057;48.554;14.454;2023-04-24T10:17:44;92874.00;;;18.20
41940;BMP180;23057;48.554;14.454;2023-04-24T10:20:27;92869.00;;;18.20
41940;BMP180;23057;48.554;14.454;2023-04-24T10:23:00;92869.00;;;18.10
41940;BMP180;23057;48.554;14.454;2023-04-24T10:25:33;92867.00;;;18.00
41940;BMP180;23057;48.554;14.454;2023-04-24T10:28:05;92870.00;;;18.00
41940;BMP180;23057;48.554;14.454;2023-04-24T10:30:36;92872.00;;;18.00
41940;BMP180;23057;48.554;14.454;2023-04-24T10:33:08;92864.00;;;17.90
41940;BMP180;23057;48.554;14.454;2023-04-24T10:35:42;92864.00;;;17.90
41940;BMP180;23057;48.554;14.454;2023-04-24T10:38:21;92875.00;;;17.90
41940;BMP180;23057;48.554;14.454;2023-04-24T10:41:07;92877.00;;;17.80
41940;BMP180;23057;48.554;14.454;2023-04-24T10:43:41;92879.00;;;17.80
41940;BMP180;23057;48.554;14.454;2023-04-24T10:46:20;92884.00;;;17.70
41940;BMP180;23057;48.554;14.454;2023-04-24T10:48:53;92882.00;;;17.80
41940;BMP180;23057;48.554;14.454;2023-04-24T10:51:52;92874.00;;;17.80
41940;BMP180;23057;48.554;14.454;2023-04-24T11:00:15;92874.00;;;18.00
41940;BMP180;23057;48.554;14.454;2023-04-24T11:02:52;92865.00;;;18.10
41940;BMP180;23057;48.554;14.454;2023-04-24T11:08:27;92851.00;;;18.30
41940;BMP180;23057;48.554;14.454;2023-04-24T11:11:17;92854.00;;;18.50
41940;BMP180;23057;48.554;14.454;2023-04-24T11:16:53;92846.00;;;18.80
41940;BMP180;23057;48.554;14.454;2023-04-24T11:19:27;92849.00;;;19.00
41940;BMP180;23057;48.554;14.454;2023-04-24T11:22:01;92855.00;;;19.10
41940;BMP180;23057;48.554;14.454;2023-04-24T11:24:39;92846.00;;;19.20
41940;BMP180;23057;48.554;14.454;2023-04-24T11:27:16;92848.00;;;19.30
41940;BMP180;23057;48.554;14.454;2023-04-24T11:35:13;92853.00;;;19.40
41940;BMP180;23057;48.554;14.454;2023-04-24T11:37:50;92853.00;;;19.40
41940;BMP180;23057;48.554;14.454;2023-04-24T11:40:22;92845.00;;;19.50
41940;BMP180;23057;48.554;14.454;2023-04-24T11:42:54;92841.00;;;19.50
41940;BMP180;23057;48.554;14.454;2023-04-24T11:45:30;92843.00;;;19.40
41940;BMP180;23057;48.554;14.454;2023-04-24T11:48:02;92839.00;;;19.40
41940;BMP180;23057;48.554;14.454;2023-04-24T11:50:34;92846.00;;;19.40
41940;BMP180;23057;48.554;14.454;2023-04-24T11:53:05;92840.00;;;19.40
41940;BMP180;23057;48.554;14.454;2023-04-24T11:55:36;92848.00;;;19.50
41940;BMP180;23057;48.554;14.454;2023-04-24T11:58:07;92841.00;;;19.50
41940;BMP180;23057;48.554;14.454;2023-04-24T12:00:37;92843.00;;;19.40
41940;BMP180;23057;48.554;14.454;2023-04-24T12:03:11;92844.00;;;19.40
41940;BMP180;23057;48.554;14.454;2023-04-24T12:05:42;92846.00;;;19.40
41940;BMP180;23057;48.554;14.454;2023-04-24T12:08:30;92849.00;;;19.30
41940;BMP180;23057;48.554;14.454;2023-04-24T12:11:04;92846.00;;;19.30
41940;BMP180;23057;48.554;14.454;2023-04-24T12:13:37;92852.00;;;19.20
41940;BMP180;23057;48.554;14.454;2023-04-24T12:16:08;92862.00;;;19.10
41940;BMP180;23057;48.554;14.454;2023-04-24T12:18:42;92859.00;;;18.90
41940;BMP180;23057;48.554;14.454;2023-04-24T12:21:22;92860.00;;;18.70
41940;BMP180;23057;48.554;14.454;2023-04-24T12:23:54;92856.00;;;18.60
41940;BMP180;23057;48.554;14.454;2023-04-24T12:26:27;92863.00;;;18.50
41940;BMP180;23057;48.554;14.454;2023-04-24T12:29:01;92870.00;;;18.50
41940;BMP180;23057;48.554;14.454;2023-04-24T12:31:33;92868.00;;;18.40
41940;BMP180;23057;48.554;14.454;2023-04-24T12:34:17;92870.00;;;18.40
41940;BMP180;23057;48.554;14.454;2023-04-24T12:36:51;92869.00;;;18.40
41940;BMP180;23057;48.554;14.454;2023-04-24T12:39:22;92860.00;;;18.30
41940;BMP180;23057;48.554;14.454;2023-04-24T12:41:57;92860.00;;;18.10
41940;BMP180;23057;48.554;14.454;2023-04-24T12:44:33;92868.00;;;18.10
41940;BMP180;23057;48.554;14.454;2023-04-24T12:47:05;92871.00;;;18.10
41940;BMP180;23057;48.554;14.454;2023-04-24T12:49:36;92871.00;;;18.20
41940;BMP180;23057;48.554;14.454;2023-04-24T12:52:07;92869.00;;;18.20
41940;BMP180;23057;48.554;14.454;2023-04-24T12:54:38;92867.00;;;18.10
41940;BMP180;23057;48.554;14.454;2023-04-24T12:57:09;92876.00;;;18.00
41940;BMP180;23057;48.554;14.454;2023-04-24T12:59:39;92873.00;;;18.00
41940;BMP180;23057;48.554;14.454;2023-04-24T13:02:11;92876.00;;;18.00
41940;BMP180;23057;48.554;14.454;2023-04-24T13:04:42;92877.00;;;18.00
41940;BMP180;23057;48.554;14.454;2023-04-24T13:07:14;92868.00;;;17.90
41940;BMP180;23057;48.554;14.454;2023-04-24T13:09:45;92868.00;;;17.90
41940;BMP180;23057;48.554;14.454;2023-04-24T13:12:19;92877.00;;;17.90
41940;BMP180;23057;48.554;14.454;2023-04-24T13:14:50;92873.00;;;17.90
41940;BMP180;23057;48.554;14.454;2023-04-24T13:17:21;92869.00;;;17.90
41940;BMP180;23057;48.554;14.454;2023-04-24T13:19:54;92867.00;;;17.90
41940;BMP180;23057;48.554;14.454;2023-04-24T13:22:25;92873.00;;;17.90
41940;BMP180;23057;48.554;14.454;2023-04-24T13:24:56;92862.00;;;17.90
41940;BMP180;23057;48.554;14.454;2023-04-24T13:27:27;92872.00;;;17.90
41940;BMP180;23057;48.554;14.454;2023-04-24T13:29:58;92871.00;;;17.90
41940;BMP180;23057;48.554;14.454;2023-04-24T13:32:29;92860.00;;;17.90
41940;BMP180;23057;48.554;14.454;2023-04-24T13:34:59;92860.00;;;18.00
41940;BMP180;23057;48.554;14.454;2023-04-24T13:37:30;92865.00;;;18.10
41940;BMP180;23057;48.554;14.454;2023-04-24T13:40:01;92857.00;;;18.10
41940;BMP180;23057;48.554;14.454;2023-04-24T13:42:32;92858.00;;;18.20
41940;BMP180;23057;48.554;14.454;2023-04-24T13:45:03;92871.00;;;18.30
41940;BMP180;23057;48.554;14.454;2023-04-24T13:47:34;92872.00;;;18.50
41940;BMP180;23057;48.554;14.454;2023-04-24T13:50:06;92872.00;;;18.50
41940;BMP180;23057;48.554;14.454;2023-04-24T13:52:39;92859.00;;;18.60
41940;BMP180;23057;48.554;14.454;2023-04-24T13:55:09;92867.00;;;18.70
41940;BMP180;23057;48.554;14.454;2023-04-24T13:57:41;92864.00;;;18.70
41940;BMP180;23057;48.554;14.454;2023-04-24T14:00:12;92863.00;;;18.70
41940;BMP180;23057;48.554;14.454;2023-04-24T14:02:43;92863.00;;;18.70
41940;BMP180;23057;48.554;14.454;2023-04-24T14:05:14;92855.00;;;18.70
41940;BMP180;23057;48.554;14.454;2023-04-24T14:07:45;92863.00;;;18.60
41940;BMP180;23057;48.554;14.454;2023-04-24T14:10:16;92875.00;;;18.50
41940;BMP180;23057;48.554;14.454;2023-04-24T14:12:47;92857.00;;;18.40
41940;BMP180;23057;48.554;14.454;2023-04-24T14:15:18;92875.00;;;18.40
41940;BMP180;23057;48.554;14.454;2023-04-24T14:17:49;92875.00;;;18.40
41940;BMP180;23057;48.554;14.454;2023-04-24T14:20:20;92863.00;;;18.40
41940;BMP180;23057;48.554;14.454;2023-04-24T14:22:52;92870.00;;;18.30
41940;BMP180;23057;48.554;14.454;2023-04-24T14:25:23;92869.00;;;18.30
41940;BMP180;23057;48.554;14.454;2023-04-24T14:27:54;92865.00;;;18.30
41940;BMP180;23057;48.554;14.454;2023-04-24T14:30:25;92866.00;;;18.40
41940;BMP180;23057;48.554;14.454;2023-04-24T14:32:56;92863.00;;;18.40
41940;BMP180;23057;48.554;14.454;2023-04-24T14:35:26;92860.00;;;18.40
41940;BMP180;23057;48.554;14.454;2023-04-24T14:37:58;92865.00;;;18.50
41940;BMP180;23057;48.554;14.454;2023-04-24T14:40:29;92864.00;;;18.50
41940;BMP180;23057;48.554;14.454;2023-04-24T14:43:01;92858.00;;;18.50